createdAt,value
2019-05-29T00:04:52.275Z,46906.98
2019-05-29T00:09:48.219Z,46895.91
2019-05-29T00:14:44.154Z,46921.07
2019-05-29T00:19:40.099Z,46912.01
2019-05-29T00:24:36.031Z,46902.96
2019-05-29T00:29:31.956Z,46923.08
2019-05-29T00:34:27.891Z,46909.00
2019-05-29T00:39:24.482Z,46902.96
2019-05-29T00:44:33.506Z,46899.94
2019-05-29T00:49:18.332Z,46889.88
2019-05-29T00:54:14.502Z,46895.91
2019-05-29T00:59:11.057Z,46910.00
2019-05-29T01:04:07.146Z,46922.07
2019-05-29T01:09:08.575Z,46891.89
2019-05-29T01:14:04.680Z,46896.92
2019-05-29T01:19:20.276Z,46875.80
2019-05-29T01:24:16.390Z,46910.00
2019-05-29T01:29:12.975Z,46906.98
2019-05-29T01:34:08.960Z,46883.84
2019-05-29T01:39:06.432Z,46875.80
2019-05-29T01:44:03.033Z,46871.77
2019-05-29T01:48:58.959Z,46902.96
2019-05-29T01:53:54.983Z,46870.77
2019-05-29T01:58:51.026Z,46862.72
2019-05-29T02:03:46.963Z,46885.86
2019-05-29T02:14:00.354Z,46906.98
2019-05-29T02:18:56.278Z,46866.74
2019-05-29T02:23:52.262Z,46870.77
2019-05-29T02:28:48.187Z,46869.76
2019-05-29T02:33:44.106Z,46829.52
2019-05-29T02:38:52.211Z,46853.66
2019-05-29T02:43:48.235Z,46852.66
2019-05-29T02:48:44.157Z,46849.64
2019-05-29T02:53:40.277Z,46837.57
2019-05-29T02:58:36.192Z,46841.59
2019-05-29T03:03:38.954Z,46837.57
2019-05-29T03:08:40.316Z,46831.53
2019-05-29T03:13:36.542Z,46817.45
2019-05-29T03:18:34.740Z,46827.51
2019-05-29T03:23:31.087Z,46831.53
2019-05-29T03:28:29.809Z,46813.42
2019-05-29T03:33:30.492Z,46807.39
2019-05-29T03:38:26.082Z,46801.35
2019-05-29T03:43:22.693Z,46825.50
2019-05-29T03:48:18.646Z,46848.63
2019-05-29T03:53:14.566Z,46803.36
2019-05-29T03:58:10.500Z,46811.41
2019-05-29T04:03:06.529Z,46821.47
2019-05-29T04:08:03.853Z,46803.36
2019-05-29T04:13:00.536Z,46809.40
2019-05-29T04:17:57.700Z,46823.48
2019-05-29T04:22:54.782Z,46805.37
2019-05-29T04:27:50.748Z,46829.52
2019-05-29T04:32:46.704Z,46821.47
2019-05-29T04:37:42.623Z,46844.61
2019-05-29T04:42:40.112Z,46840.59
2019-05-29T04:47:37.341Z,46827.51
2019-05-29T04:52:34.242Z,46822.48
2019-05-29T04:57:31.347Z,46823.48
2019-05-29T05:02:27.285Z,46827.51
2019-05-29T05:07:23.205Z,46873.79
2019-05-29T05:12:19.245Z,46879.82
2019-05-29T05:17:25.846Z,46903.96
2019-05-29T05:22:12.989Z,46902.96
2019-05-29T05:27:08.988Z,46932.13
2019-05-29T05:32:04.917Z,46924.09
2019-05-29T05:37:00.823Z,47012.62
2019-05-29T05:41:56.849Z,47045.82
2019-05-29T05:46:52.775Z,47022.68
2019-05-29T05:51:49.533Z,47064.93
2019-05-29T05:56:45.466Z,47052.86
2019-05-29T06:01:42.111Z,47055.87
2019-05-29T06:06:38.196Z,47089.08
2019-05-29T06:11:34.259Z,47081.03
2019-05-29T06:16:30.200Z,47129.32
2019-05-29T06:21:26.256Z,47165.54
2019-05-29T06:26:24.751Z,47184.65
2019-05-29T06:31:20.821Z,47183.65
2019-05-29T06:36:16.745Z,47200.75
2019-05-29T06:41:12.664Z,47208.80
2019-05-29T06:46:08.591Z,47205.78
2019-05-29T06:51:04.645Z,47188.68
2019-05-29T06:56:02.121Z,47159.50
2019-05-29T07:00:58.631Z,47198.74
2019-05-29T07:05:54.668Z,47196.73
2019-05-29T07:10:50.601Z,47179.63
2019-05-29T07:15:47.573Z,47225.91
2019-05-29T07:20:44.796Z,47285.27
2019-05-29T07:25:40.998Z,47324.50
2019-05-29T07:30:37.381Z,47213.83
2019-05-29T07:35:33.462Z,47265.14
2019-05-29T07:40:29.387Z,47307.40
2019-05-29T07:45:25.407Z,47356.70
2019-05-29T07:50:21.346Z,47384.87
2019-05-29T07:55:17.406Z,47242.00
2019-05-29T08:00:13.598Z,47305.39
2019-05-29T08:05:11.119Z,47380.85
2019-05-29T08:10:07.558Z,47361.73
2019-05-29T08:15:04.602Z,47341.61
2019-05-29T08:20:06.814Z,47386.89
2019-05-29T08:24:58.454Z,47301.36
2019-05-29T08:29:54.387Z,47410.03
2019-05-29T08:34:51.221Z,47451.28
2019-05-29T08:39:49.462Z,47471.40
2019-05-29T08:44:45.569Z,47518.69
2019-05-29T08:49:42.204Z,47515.67
2019-05-29T08:54:38.955Z,47490.52
2019-05-29T08:59:35.412Z,47530.77
2019-05-29T09:04:36.947Z,47378.84
2019-05-29T09:09:33.438Z,47360.73
2019-05-29T09:14:29.355Z,47390.91
2019-05-29T09:19:25.281Z,47221.88
2019-05-29T09:24:23.058Z,47212.82
2019-05-29T09:29:23.789Z,47359.72
2019-05-29T09:34:22.745Z,47391.91
2019-05-29T09:39:20.937Z,47380.85
2019-05-29T09:44:31.218Z,47556.93
2019-05-29T09:49:15.817Z,47412.04
2019-05-29T09:54:12.805Z,47450.27
2019-05-29T09:59:08.791Z,47500.58
2019-05-29T10:04:06.170Z,47426.12
2019-05-29T10:09:08.581Z,47469.39
2019-05-29T10:14:05.092Z,47552.90
2019-05-29T10:19:01.616Z,47455.30
2019-05-29T10:23:59.568Z,47469.39
2019-05-29T10:29:07.332Z,47288.29
2019-05-29T10:33:53.606Z,47325.51
2019-05-29T10:38:52.683Z,47413.05
2019-05-29T10:43:49.159Z,47427.13
2019-05-29T10:48:48.699Z,47411.03
2019-05-29T10:53:44.274Z,47475.43
2019-05-29T10:58:51.626Z,47646.48
2019-05-29T11:03:38.169Z,47777.29
2019-05-29T11:08:48.025Z,47692.77
2019-05-29T11:13:44.222Z,47650.50
2019-05-29T11:18:40.154Z,47608.24
2019-05-29T11:23:36.089Z,47763.20
2019-05-29T11:28:32.020Z,47647.48
2019-05-29T11:33:29.212Z,47492.53
2019-05-29T11:38:26.716Z,47472.41
2019-05-29T11:43:22.942Z,47570.01
2019-05-29T11:48:18.895Z,47517.68
2019-05-29T11:53:14.944Z,47596.17
2019-05-29T11:58:10.985Z,47702.83
2019-05-29T12:03:07.018Z,47750.12
2019-05-29T12:08:03.157Z,47873.89
2019-05-29T12:12:59.649Z,48044.96
2019-05-29T12:18:08.213Z,47965.46
2019-05-29T12:23:12.818Z,48061.06
2019-05-29T12:27:52.622Z,48040.93
2019-05-29T12:32:48.744Z,47870.87
2019-05-29T12:37:44.673Z,47752.13
2019-05-29T12:42:44.774Z,47747.10
2019-05-29T12:47:38.564Z,47815.53
2019-05-29T12:52:36.200Z,47938.29
2019-05-29T12:57:32.230Z,48174.77
2019-05-29T13:02:28.162Z,48061.06
2019-05-29T13:07:24.093Z,47716.91
2019-05-29T13:12:20.023Z,47747.10
2019-05-29T13:17:17.535Z,47924.20
2019-05-29T13:22:14.162Z,47680.69
2019-05-29T13:27:10.085Z,47814.52
2019-05-29T13:32:07.565Z,48041.94
2019-05-29T13:37:07.477Z,48178.80
2019-05-29T13:42:07.328Z,48201.95
2019-05-29T13:46:59.852Z,48153.64
2019-05-29T13:51:57.052Z,48089.24
2019-05-29T13:56:53.442Z,48046.97
2019-05-29T14:01:49.501Z,48022.82
2019-05-29T14:06:45.432Z,48045.96
2019-05-29T14:11:41.367Z,48007.73
2019-05-29T14:16:40.007Z,47944.33
2019-05-29T14:21:36.740Z,47879.93
2019-05-29T14:26:33.474Z,47989.61
2019-05-29T14:31:30.643Z,48146.60
2019-05-29T14:36:27.430Z,48166.72
2019-05-29T14:41:23.628Z,47933.26
2019-05-29T14:46:19.515Z,48058.04
2019-05-29T14:51:15.438Z,48069.11
2019-05-29T14:56:11.365Z,48225.09
2019-05-29T15:01:07.301Z,48219.05
2019-05-29T15:06:06.148Z,48236.16
2019-05-29T15:11:05.680Z,47982.57
2019-05-29T15:16:09.015Z,48056.03
2019-05-29T15:21:05.216Z,48008.73
2019-05-29T15:26:01.141Z,48116.41
2019-05-29T15:30:57.097Z,47907.10
2019-05-29T15:35:53.162Z,47945.34
2019-05-29T15:40:50.199Z,48127.48
2019-05-29T15:45:46.228Z,48046.97
2019-05-29T15:50:42.175Z,48192.89
2019-05-29T15:55:38.103Z,48127.48
2019-05-29T16:00:34.028Z,48070.12
2019-05-29T16:05:30.001Z,48091.25
2019-05-29T16:10:25.947Z,48143.58
2019-05-29T16:15:21.877Z,48149.62
2019-05-29T16:20:22.705Z,48185.84
2019-05-29T16:25:19.247Z,48142.57
2019-05-29T16:30:17.787Z,48264.34
2019-05-29T16:35:15.122Z,47893.01
2019-05-29T16:40:14.122Z,48159.68
2019-05-29T16:45:12.058Z,48472.66
2019-05-29T16:50:08.770Z,48608.54
2019-05-29T16:55:07.569Z,48481.72
2019-05-29T17:00:09.438Z,48550.16
2019-05-29T17:05:06.289Z,48029.86
2019-05-29T17:10:10.725Z,48010.75
2019-05-29T17:15:09.087Z,48324.72
2019-05-29T17:20:07.285Z,48621.62
2019-05-29T17:25:07.437Z,48436.43
2019-05-29T17:30:05.467Z,48778.63
2019-05-29T17:35:02.491Z,49123.87
2019-05-29T17:39:58.424Z,49105.75
2019-05-29T17:44:54.345Z,49295.00
2019-05-29T17:49:50.275Z,49051.40
2019-05-29T17:54:46.397Z,49070.52
2019-05-29T17:59:43.058Z,49026.24
2019-05-29T18:04:39.204Z,49056.43
2019-05-29T18:09:37.270Z,48862.17
2019-05-29T18:14:41.499Z,48919.54
2019-05-29T18:19:38.673Z,48869.21
2019-05-29T18:24:34.701Z,48818.89
2019-05-29T18:29:31.621Z,48772.59
2019-05-29T18:34:29.799Z,48578.34
2019-05-29T18:39:26.472Z,48647.79
2019-05-29T18:44:22.828Z,48546.13
2019-05-29T18:49:20.281Z,48325.73
2019-05-29T18:54:16.430Z,48137.54
2019-05-29T18:59:12.360Z,47975.52
2019-05-29T19:04:08.284Z,47894.02
2019-05-29T19:09:09.267Z,47815.53
2019-05-29T19:14:05.395Z,47636.42
2019-05-29T19:19:01.323Z,47402.98
2019-05-29T19:23:57.261Z,47326.52
2019-05-29T19:28:53.194Z,47258.10
2019-05-29T19:33:49.125Z,47234.96
2019-05-29T19:38:47.519Z,47169.56
2019-05-29T19:43:43.447Z,47161.52
2019-05-29T19:48:39.785Z,47176.61
2019-05-29T19:53:35.830Z,47129.32
2019-05-29T19:58:31.914Z,47102.16
2019-05-29T20:03:28.345Z,47038.77
2019-05-29T20:08:27.054Z,47050.85
2019-05-29T20:13:23.253Z,46999.54
2019-05-29T20:18:19.181Z,47012.62
2019-05-29T20:23:15.109Z,47024.69
2019-05-29T20:28:11.442Z,47027.71
2019-05-29T20:33:07.670Z,47007.59
2019-05-29T20:38:06.502Z,47013.62
2019-05-29T20:43:01.547Z,47003.56
2019-05-29T20:47:57.581Z,47018.65
2019-05-29T20:52:53.542Z,47038.77
2019-05-29T20:57:49.502Z,47004.57
2019-05-29T21:02:45.426Z,47003.56
2019-05-29T21:07:41.383Z,47026.70
2019-05-29T21:12:37.584Z,47028.71
2019-05-29T21:17:35.756Z,47036.76
2019-05-29T21:22:32.182Z,47024.69
2019-05-29T21:27:28.109Z,47014.63
2019-05-29T21:32:24.028Z,47012.62
2019-05-29T21:37:19.958Z,47008.59
2019-05-29T21:42:15.897Z,47009.60
2019-05-29T21:47:11.835Z,47034.75
2019-05-29T21:52:11.974Z,46988.47
2019-05-29T21:57:09.764Z,47014.63
2019-05-29T22:02:06.185Z,46982.43
2019-05-29T22:07:02.293Z,47003.56
2019-05-29T22:11:58.583Z,46982.43
2019-05-29T22:16:55.012Z,46989.48
2019-05-29T22:21:51.138Z,46982.43
2019-05-29T22:26:47.062Z,47021.67
2019-05-29T22:31:42.989Z,46986.46
2019-05-29T22:36:38.917Z,46963.32
2019-05-29T22:41:34.891Z,46990.48
2019-05-29T22:46:30.818Z,46984.45
2019-05-29T22:51:26.843Z,46986.46
2019-05-29T22:56:22.763Z,46959.30
2019-05-29T23:01:18.847Z,46978.41
2019-05-29T23:06:14.781Z,46948.23
2019-05-29T23:11:10.710Z,46963.32
2019-05-29T23:16:06.743Z,46949.23
2019-05-29T23:21:02.780Z,46950.24
2019-05-29T23:25:58.699Z,46929.11
2019-05-29T23:30:54.749Z,46930.12
2019-05-29T23:35:50.703Z,46933.14
2019-05-29T23:40:46.635Z,46905.98
2019-05-29T23:45:42.564Z,46924.09
2019-05-29T23:50:38.504Z,46943.20
2019-05-29T23:55:34.426Z,46907.99
